Aérodrome :
LOGIN :

S'inscrire | Disclaimer

   EN    FR    IT 

 










Légende :    VFR   VFR Marginal   IFR   IFR Intensif   IFR Très Intensif
Visi : 
Plafond : 
>= 8 km
>= 3000ft
5 à 8 km
1000 à 3000 ft
1500m à 5 km
500 à 1000 ft
800 à 1500m
200 à 500 ft
< 800m
< 200 ft
Symboles :   Orages  Brouillard  Fortes neiges  Fortes précipitations  Vent > 20 kt
SIGMETs :   Divers  Orages  Givrage  Turbulence  Onde Orograph.  Cendres Volcan.






- Altitude de l'aérodrome : 138 ft
- Code IATA : BIO


LEBB - Bilbao

DERNIER METAR :
  • 260230Z AUTO VRB02KT 9999 FEW036 13/11 Q1022

METARs EXPIRÉS :
  • 260200Z AUTO 27005KT 230V300 4600 BR SCT050 SCT060 BKN070 13/11 Q1022
  • 260130Z AUTO 23004KT 160V300 9999 SCT042 SCT050 BKN066 13/11 Q1023
  • 260100Z AUTO 25006KT 200V280 2000 1100NW BR SCT034 BKN041 BKN050 13/11 Q1023
  • 260030Z AUTO 28008KT 250V330 9999 FEW041 BKN050 14/11 Q1023

TAF AMD TAF LEBB
Valide du 26 à 02h jusqu'au 27 à 00h UTC


260215Z 2602/2624 29009KT 9999 SCT020 BKN035 TX18/2615Z TN12/2605Z
TEMPO 2602/2624 29015G28KT
PROB40
TEMPO 2618/2621 29020G38KT
PROB40
TEMPO 2621/2623 36018G30KT
TEMPO 2602/2624 3000 RA BKN010 SCT030TCU
PROB40
TEMPO 2612/2622 1500 +RA BKN010 BKN030TCU



MET'MAP, la Météo Aéronautique d'un coup d'oeil ! - Copyright ORBIFLY Décembre 2007 - Disclaimer

ORBIFLY MET'MAP TEAM :

Programmation & Développement : Alexandra Zaïnal
Sur une idée originale de : Baudouin d'Aumeries
Assistance à la programmation : Marc-Olivier Méhu
Soutien technique & logistique : Manuel Goepfert

Contact : metmap@orbifly.com




SOURCES & CREDITS :

   NOAA